Observations for STAVERTON PRIVATE, United Kingdom (EGBJ)

EGBJ 181750Z 18010KT 9999 VCSH FEW014 SCT022 19/16 Q1009
EGBJ 181720Z 20009G19KT 9999 FEW014 SCT022 20/15 Q1009  
EGBJ 181650Z 23011KT 190V260 9999 FEW014 SCT022 20/15 Q1010 
EGBJ 181620Z 22014KT 170V250 9999 FEW014 SCT020 21/15 Q1010 
EGBJ 181550Z 22013KT 190V250 9999 FEW014 SCT020 20/15 Q1010 
EGBJ 181520Z 21015G25KT 9999 FEW012 SCT020 20/15 Q1009  
EGBJ 181450Z 22014G25KT 9999 FEW012 SCT020 20/15 Q1009  
EGBJ 181420Z 23014G25KT 9999 VCSH FEW012 SCT020 20/15 Q1009 
EGBJ 181350Z 23012G22KT 200V260 9999 VCSH FEW010 SCT018 BKN035 19/15 Q1009  
EGBJ 181320Z 22014G28KT 190V250 9999 VCSH FEW014 SCT020 BKN035 19/15 Q1009  
EGBJ 181250Z 22016KT 9999 VCSH FEW014 BKN020 19/14 Q1009
EGBJ 181220Z 23014KT 190V280 9999 VCSH FEW014 BKN020 20/15 Q1009
EGBJ 181150Z 23014G24KT 200V260 9999 FEW012 SCT015 19/14 Q1008  
EGBJ 181120Z 23017KT 9999 FEW012 SCT015 20/15 Q1008 
EGBJ 181050Z 23014G25KT 200V260 9999 FEW010 BKN014 18/13 Q1008  
EGBJ 181020Z 23012KT 200V270 9999 FEW010 SCT014 18/13 Q1008 
EGBJ 180950Z 23015G25KT 200V260 9999 FEW010 SCT014 18/13 Q1007  
EGBJ 180920Z 23018G29KT 9999 BKN014 18/13 Q1006 
EGBJ 180850Z 23017G29KT 9999 BKN014 17/13 Q1005 
EGBJ 180820Z 23016G30KT 9999 -DZ FEW010 BKN014 17/14 Q1005  
EGBJ 180750Z 22018G30KT 9999 -DZ FEW010 BKN014 17/14 Q1004  
EGBJ 180720Z 22017G32KT 180V250 9999 -DZ FEW010 BKN014 17/15 Q1004